sensor_id;sensor_type;location;lat;lon;timestamp;P1;durP1;ratioP1;P2;durP2;ratioP2
60060;SDS011;45933;51.336;12.612;2023-08-01T00:01:31;10.52;;;3.55;;
60060;SDS011;45933;51.336;12.612;2023-08-01T00:03:57;6.82;;;3.95;;
60060;SDS011;45933;51.336;12.612;2023-08-01T00:06:22;6.75;;;3.70;;
60060;SDS011;45933;51.336;12.612;2023-08-01T00:08:49;6.07;;;3.45;;
60060;SDS011;45933;51.336;12.612;2023-08-01T00:11:14;6.55;;;3.75;;
60060;SDS011;45933;51.336;12.612;2023-08-01T00:13:41;12.02;;;4.20;;
60060;SDS011;45933;51.336;12.612;2023-08-01T00:16:06;8.00;;;4.00;;
60060;SDS011;45933;51.336;12.612;2023-08-01T00:18:32;6.70;;;4.00;;
60060;SDS011;45933;51.336;12.612;2023-08-01T00:20:58;5.35;;;3.47;;
60060;SDS011;45933;51.336;12.612;2023-08-01T00:23:24;7.97;;;4.18;;
60060;SDS011;45933;51.336;12.612;2023-08-01T00:25:49;7.18;;;3.85;;
60060;SDS011;45933;51.336;12.612;2023-08-01T00:28:19;7.50;;;3.30;;
60060;SDS011;45933;51.336;12.612;2023-08-01T00:30:46;4.95;;;3.40;;
60060;SDS011;45933;51.336;12.612;2023-08-01T00:33:12;5.55;;;3.25;;
60060;SDS011;45933;51.336;12.612;2023-08-01T00:35:38;7.45;;;3.40;;
60060;SDS011;45933;51.336;12.612;2023-08-01T00:38:03;6.60;;;3.55;;
60060;SDS011;45933;51.336;12.612;2023-08-01T00:40:31;4.50;;;3.08;;
60060;SDS011;45933;51.336;12.612;2023-08-01T00:42:57;7.63;;;3.40;;
60060;SDS011;45933;51.336;12.612;2023-08-01T00:45:23;5.90;;;3.15;;
60060;SDS011;45933;51.336;12.612;2023-08-01T00:47:50;6.18;;;3.53;;
60060;SDS011;45933;51.336;12.612;2023-08-01T00:50:17;6.88;;;3.40;;
60060;SDS011;45933;51.336;12.612;2023-08-01T00:52:45;5.28;;;3.20;;
60060;SDS011;45933;51.336;12.612;2023-08-01T00:55:11;6.43;;;3.53;;
60060;SDS011;45933;51.336;12.612;2023-08-01T00:57:36;4.65;;;3.38;;
60060;SDS011;45933;51.336;12.612;2023-08-01T01:00:02;17.48;;;3.30;;
60060;SDS011;45933;51.336;12.612;2023-08-01T01:02:28;6.57;;;3.40;;
60060;SDS011;45933;51.336;12.612;2023-08-01T01:04:53;5.22;;;3.20;;
60060;SDS011;45933;51.336;12.612;2023-08-01T01:07:18;8.23;;;3.83;;
60060;SDS011;45933;51.336;12.612;2023-08-01T01:09:44;5.25;;;2.80;;
60060;SDS011;45933;51.336;12.612;2023-08-01T01:12:12;4.82;;;3.15;;
60060;SDS011;45933;51.336;12.612;2023-08-01T01:14:37;7.28;;;3.28;;
60060;SDS011;45933;51.336;12.612;2023-08-01T01:17:03;5.90;;;3.20;;
60060;SDS011;45933;51.336;12.612;2023-08-01T01:19:28;7.10;;;2.85;;
60060;SDS011;45933;51.336;12.612;2023-08-01T01:21:53;10.55;;;3.60;;
60060;SDS011;45933;51.336;12.612;2023-08-01T01:24:20;4.93;;;3.38;;
60060;SDS011;45933;51.336;12.612;2023-08-01T01:26:46;6.72;;;3.17;;
60060;SDS011;45933;51.336;12.612;2023-08-01T01:29:13;6.72;;;3.38;;
60060;SDS011;45933;51.336;12.612;2023-08-01T01:31:39;3.88;;;3.05;;
60060;SDS011;45933;51.336;12.612;2023-08-01T01:34:07;5.10;;;3.22;;
60060;SDS011;45933;51.336;12.612;2023-08-01T01:36:32;3.88;;;2.63;;
60060;SDS011;45933;51.336;12.612;2023-08-01T01:38:59;6.43;;;3.05;;
60060;SDS011;45933;51.336;12.612;2023-08-01T01:41:24;4.68;;;3.22;;
60060;SDS011;45933;51.336;12.612;2023-08-01T01:43:50;4.88;;;3.05;;
60060;SDS011;45933;51.336;12.612;2023-08-01T01:46:15;6.65;;;3.72;;
60060;SDS011;45933;51.336;12.612;2023-08-01T01:48:41;5.30;;;3.13;;
60060;SDS011;45933;51.336;12.612;2023-08-01T01:51:07;4.40;;;2.85;;
60060;SDS011;45933;51.336;12.612;2023-08-01T01:53:32;5.63;;;3.15;;
60060;SDS011;45933;51.336;12.612;2023-08-01T01:55:58;4.65;;;2.75;;
60060;SDS011;45933;51.336;12.612;2023-08-01T01:58:23;5.40;;;3.35;;
60060;SDS011;45933;51.336;12.612;2023-08-01T02:00:48;5.65;;;2.85;;
60060;SDS011;45933;51.336;12.612;2023-08-01T02:03:14;5.13;;;2.88;;
60060;SDS011;45933;51.336;12.612;2023-08-01T02:05:40;6.10;;;3.00;;
60060;SDS011;45933;51.336;12.612;2023-08-01T02:08:09;4.60;;;3.10;;
60060;SDS011;45933;51.336;12.612;2023-08-01T02:10:35;5.47;;;3.33;;
60060;SDS011;45933;51.336;12.612;2023-08-01T02:13:00;4.18;;;3.05;;
60060;SDS011;45933;51.336;12.612;2023-08-01T02:15:25;4.85;;;2.92;;
60060;SDS011;45933;51.336;12.612;2023-08-01T02:17:50;6.32;;;3.03;;
60060;SDS011;45933;51.336;12.612;2023-08-01T02:20:16;3.40;;;2.88;;
60060;SDS011;45933;51.336;12.612;2023-08-01T02:22:41;4.20;;;2.42;;
60060;SDS011;45933;51.336;12.612;2023-08-01T02:25:07;3.53;;;2.90;;
60060;SDS011;45933;51.336;12.612;2023-08-01T02:27:32;4.65;;;2.95;;
60060;SDS011;45933;51.336;12.612;2023-08-01T02:29:58;5.63;;;3.25;;
60060;SDS011;45933;51.336;12.612;2023-08-01T02:32:23;4.72;;;3.22;;
60060;SDS011;45933;51.336;12.612;2023-08-01T02:34:49;5.85;;;3.63;;
60060;SDS011;45933;51.336;12.612;2023-08-01T02:37:14;5.65;;;3.17;;
60060;SDS011;45933;51.336;12.612;2023-08-01T02:39:39;4.15;;;3.22;;
60060;SDS011;45933;51.336;12.612;2023-08-01T02:42:05;3.97;;;2.90;;
60060;SDS011;45933;51.336;12.612;2023-08-01T02:44:30;4.40;;;3.22;;
60060;SDS011;45933;51.336;12.612;2023-08-01T02:46:55;4.32;;;3.05;;
60060;SDS011;45933;51.336;12.612;2023-08-01T02:49:21;3.92;;;2.90;;
60060;SDS011;45933;51.336;12.612;2023-08-01T02:51:46;3.95;;;2.80;;
60060;SDS011;45933;51.336;12.612;2023-08-01T02:54:11;6.88;;;3.40;;
60060;SDS011;45933;51.336;12.612;2023-08-01T02:56:37;4.72;;;3.08;;
60060;SDS011;45933;51.336;12.612;2023-08-01T02:59:06;6.00;;;2.92;;
60060;SDS011;45933;51.336;12.612;2023-08-01T03:01:33;4.93;;;3.05;;
60060;SDS011;45933;51.336;12.612;2023-08-01T03:04:00;4.13;;;3.10;;
60060;SDS011;45933;51.336;12.612;2023-08-01T03:06:25;5.50;;;3.35;;
60060;SDS011;45933;51.336;12.612;2023-08-01T03:08:50;4.65;;;3.00;;
60060;SDS011;45933;51.336;12.612;2023-08-01T03:11:16;5.45;;;3.17;;
60060;SDS011;45933;51.336;12.612;2023-08-01T03:13:41;4.65;;;3.20;;
60060;SDS011;45933;51.336;12.612;2023-08-01T03:16:06;4.78;;;3.17;;
60060;SDS011;45933;51.336;12.612;2023-08-01T03:18:32;4.88;;;2.95;;
60060;SDS011;45933;51.336;12.612;2023-08-01T03:20:57;4.43;;;2.53;;
60060;SDS011;45933;51.336;12.612;2023-08-01T03:23:22;5.50;;;2.92;;
60060;SDS011;45933;51.336;12.612;2023-08-01T03:25:48;4.95;;;3.25;;
60060;SDS011;45933;51.336;12.612;2023-08-01T03:28:13;5.03;;;3.03;;
60060;SDS011;45933;51.336;12.612;2023-08-01T03:30:39;3.38;;;2.90;;
60060;SDS011;45933;51.336;12.612;2023-08-01T03:33:04;5.03;;;3.30;;
60060;SDS011;45933;51.336;12.612;2023-08-01T03:35:29;3.92;;;2.70;;
60060;SDS011;45933;51.336;12.612;2023-08-01T03:37:55;4.15;;;2.80;;
60060;SDS011;45933;51.336;12.612;2023-08-01T03:40:20;4.30;;;2.80;;
60060;SDS011;45933;51.336;12.612;2023-08-01T03:42:46;6.40;;;3.10;;
60060;SDS011;45933;51.336;12.612;2023-08-01T03:45:11;5.15;;;2.72;;
60060;SDS011;45933;51.336;12.612;2023-08-01T03:47:36;4.35;;;3.22;;
60060;SDS011;45933;51.336;12.612;2023-08-01T03:50:02;3.63;;;2.90;;
60060;SDS011;45933;51.336;12.612;2023-08-01T03:52:28;4.75;;;2.50;;
60060;SDS011;45933;51.336;12.612;2023-08-01T03:54:55;3.75;;;2.45;;
60060;SDS011;45933;51.336;12.612;2023-08-01T03:57:20;3.85;;;2.45;;
60060;SDS011;45933;51.336;12.612;2023-08-01T03:59:46;3.45;;;2.65;;
60060;SDS011;45933;51.336;12.612;2023-08-01T04:02:11;4.82;;;2.85;;
60060;SDS011;45933;51.336;12.612;2023-08-01T04:04:37;5.68;;;2.78;;
60060;SDS011;45933;51.336;12.612;2023-08-01T04:07:02;3.25;;;2.58;;
60060;SDS011;45933;51.336;12.612;2023-08-01T04:09:28;4.18;;;2.95;;
60060;SDS011;45933;51.336;12.612;2023-08-01T04:11:53;4.13;;;2.42;;
60060;SDS011;45933;51.336;12.612;2023-08-01T04:14:18;4.07;;;2.70;;
60060;SDS011;45933;51.336;12.612;2023-08-01T04:16:43;2.70;;;2.15;;
60060;SDS011;45933;51.336;12.612;2023-08-01T04:19:09;4.47;;;2.53;;
60060;SDS011;45933;51.336;12.612;2023-08-01T04:21:34;5.57;;;3.17;;
60060;SDS011;45933;51.336;12.612;2023-08-01T04:24:00;2.60;;;2.22;;
60060;SDS011;45933;51.336;12.612;2023-08-01T04:26:25;3.33;;;2.40;;
60060;SDS011;45933;51.336;12.612;2023-08-01T04:28:50;3.42;;;2.47;;
60060;SDS011;45933;51.336;12.612;2023-08-01T04:31:16;2.97;;;2.25;;
60060;SDS011;45933;51.336;12.612;2023-08-01T04:33:41;3.47;;;2.55;;
60060;SDS011;45933;51.336;12.612;2023-08-01T04:36:07;3.22;;;2.33;;
60060;SDS011;45933;51.336;12.612;2023-08-01T04:38:33;4.15;;;2.30;;
60060;SDS011;45933;51.336;12.612;2023-08-01T04:40:58;3.20;;;2.50;;
60060;SDS011;45933;51.336;12.612;2023-08-01T04:43:23;3.72;;;2.13;;
60060;SDS011;45933;51.336;12.612;2023-08-01T04:45:49;3.38;;;2.30;;
60060;SDS011;45933;51.336;12.612;2023-08-01T04:48:14;2.95;;;2.33;;
60060;SDS011;45933;51.336;12.612;2023-08-01T04:50:39;3.58;;;2.15;;
60060;SDS011;45933;51.336;12.612;2023-08-01T04:53:05;3.35;;;2.15;;
60060;SDS011;45933;51.336;12.612;2023-08-01T04:55:31;3.05;;;2.10;;
60060;SDS011;45933;51.336;12.612;2023-08-01T04:57:56;3.90;;;2.13;;
60060;SDS011;45933;51.336;12.612;2023-08-01T05:00:22;3.17;;;2.17;;
60060;SDS011;45933;51.336;12.612;2023-08-01T05:02:47;3.30;;;2.42;;
60060;SDS011;45933;51.336;12.612;2023-08-01T05:05:13;2.72;;;1.88;;
60060;SDS011;45933;51.336;12.612;2023-08-01T05:07:38;2.65;;;1.90;;
60060;SDS011;45933;51.336;12.612;2023-08-01T05:10:03;2.88;;;1.95;;
60060;SDS011;45933;51.336;12.612;2023-08-01T05:12:29;2.58;;;2.22;;
60060;SDS011;45933;51.336;12.612;2023-08-01T05:14:55;2.88;;;2.10;;
60060;SDS011;45933;51.336;12.612;2023-08-01T05:17:20;2.55;;;2.15;;
60060;SDS011;45933;51.336;12.612;2023-08-01T05:19:45;2.33;;;1.88;;
60060;SDS011;45933;51.336;12.612;2023-08-01T05:22:10;3.40;;;2.35;;
60060;SDS011;45933;51.336;12.612;2023-08-01T05:24:36;3.08;;;1.83;;
60060;SDS011;45933;51.336;12.612;2023-08-01T05:27:01;2.78;;;1.98;;
60060;SDS011;45933;51.336;12.612;2023-08-01T05:29:27;3.10;;;2.33;;
60060;SDS011;45933;51.336;12.612;2023-08-01T05:31:52;3.58;;;2.00;;
60060;SDS011;45933;51.336;12.612;2023-08-01T05:34:17;2.42;;;2.00;;
60060;SDS011;45933;51.336;12.612;2023-08-01T05:36:42;2.80;;;2.22;;
60060;SDS011;45933;51.336;12.612;2023-08-01T05:39:08;4.32;;;2.10;;
60060;SDS011;45933;51.336;12.612;2023-08-01T05:41:34;3.38;;;1.80;;
60060;SDS011;45933;51.336;12.612;2023-08-01T05:44:01;2.72;;;2.20;;
60060;SDS011;45933;51.336;12.612;2023-08-01T05:46:26;2.05;;;1.70;;
60060;SDS011;45933;51.336;12.612;2023-08-01T05:48:52;3.00;;;1.88;;
60060;SDS011;45933;51.336;12.612;2023-08-01T05:51:17;3.85;;;1.85;;
60060;SDS011;45933;51.336;12.612;2023-08-01T05:53:42;2.28;;;1.60;;
60060;SDS011;45933;51.336;12.612;2023-08-01T05:56:07;3.17;;;2.00;;
60060;SDS011;45933;51.336;12.612;2023-08-01T05:58:33;2.97;;;1.95;;
60060;SDS011;45933;51.336;12.612;2023-08-01T06:00:58;6.07;;;1.70;;
60060;SDS011;45933;51.336;12.612;2023-08-01T06:03:24;2.17;;;1.50;;
60060;SDS011;45933;51.336;12.612;2023-08-01T06:05:49;2.15;;;1.67;;
60060;SDS011;45933;51.336;12.612;2023-08-01T06:08:14;3.60;;;1.50;;
60060;SDS011;45933;51.336;12.612;2023-08-01T06:10:40;2.35;;;1.50;;
60060;SDS011;45933;51.336;12.612;2023-08-01T06:13:06;3.35;;;1.55;;
60060;SDS011;45933;51.336;12.612;2023-08-01T06:15:31;2.35;;;1.65;;
60060;SDS011;45933;51.336;12.612;2023-08-01T06:17:57;2.97;;;1.88;;
60060;SDS011;45933;51.336;12.612;2023-08-01T06:20:22;2.92;;;1.60;;
60060;SDS011;45933;51.336;12.612;2023-08-01T06:22:47;3.03;;;1.48;;
60060;SDS011;45933;51.336;12.612;2023-08-01T06:25:14;2.95;;;1.60;;
60060;SDS011;45933;51.336;12.612;2023-08-01T06:27:39;2.70;;;1.50;;
60060;SDS011;45933;51.336;12.612;2023-08-01T06:30:04;2.17;;;1.50;;
60060;SDS011;45933;51.336;12.612;2023-08-01T06:32:31;2.58;;;1.65;;
60060;SDS011;45933;51.336;12.612;2023-08-01T06:34:56;1.92;;;1.40;;
60060;SDS011;45933;51.336;12.612;2023-08-01T06:37:21;2.35;;;1.42;;
60060;SDS011;45933;51.336;12.612;2023-08-01T06:39:46;2.97;;;1.35;;
60060;SDS011;45933;51.336;12.612;2023-08-01T06:42:12;1.85;;;1.30;;
60060;SDS011;45933;51.336;12.612;2023-08-01T06:44:37;2.38;;;1.35;;
60060;SDS011;45933;51.336;12.612;2023-08-01T06:47:02;1.90;;;1.30;;
60060;SDS011;45933;51.336;12.612;2023-08-01T06:49:28;1.25;;;1.13;;
60060;SDS011;45933;51.336;12.612;2023-08-01T06:51:53;3.08;;;1.20;;
60060;SDS011;45933;51.336;12.612;2023-08-01T06:54:19;1.77;;;1.20;;
60060;SDS011;45933;51.336;12.612;2023-08-01T06:56:44;7.57;;;2.05;;
60060;SDS011;45933;51.336;12.612;2023-08-01T06:59:13;1.45;;;1.15;;
60060;SDS011;45933;51.336;12.612;2023-08-01T07:01:39;2.50;;;1.23;;
60060;SDS011;45933;51.336;12.612;2023-08-01T07:04:05;2.45;;;1.00;;
60060;SDS011;45933;51.336;12.612;2023-08-01T07:06:31;1.98;;;1.00;;
60060;SDS011;45933;51.336;12.612;2023-08-01T07:08:56;1.33;;;0.90;;
60060;SDS011;45933;51.336;12.612;2023-08-01T07:11:22;1.20;;;1.05;;
60060;SDS011;45933;51.336;12.612;2023-08-01T07:13:48;1.50;;;0.82;;
60060;SDS011;45933;51.336;12.612;2023-08-01T07:16:13;1.08;;;0.73;;
60060;SDS011;45933;51.336;12.612;2023-08-01T07:18:39;1.20;;;0.90;;
60060;SDS011;45933;51.336;12.612;2023-08-01T07:21:04;1.83;;;0.80;;
60060;SDS011;45933;51.336;12.612;2023-08-01T07:23:30;1.83;;;1.10;;
60060;SDS011;45933;51.336;12.612;2023-08-01T07:25:56;1.67;;;0.90;;
60060;SDS011;45933;51.336;12.612;2023-08-01T07:28:22;2.42;;;1.02;;
60060;SDS011;45933;51.336;12.612;2023-08-01T07:30:47;1.45;;;0.90;;
60060;SDS011;45933;51.336;12.612;2023-08-01T07:33:12;1.15;;;0.88;;
60060;SDS011;45933;51.336;12.612;2023-08-01T07:35:38;1.08;;;0.80;;
60060;SDS011;45933;51.336;12.612;2023-08-01T07:38:03;1.30;;;1.00;;
60060;SDS011;45933;51.336;12.612;2023-08-01T07:40:28;0.95;;;0.60;;
60060;SDS011;45933;51.336;12.612;2023-08-01T07:42:54;1.30;;;1.00;;
60060;SDS011;45933;51.336;12.612;2023-08-01T07:45:19;1.08;;;0.75;;
60060;SDS011;45933;51.336;12.612;2023-08-01T07:47:45;0.80;;;0.75;;
60060;SDS011;45933;51.336;12.612;2023-08-01T07:50:10;0.75;;;0.75;;
60060;SDS011;45933;51.336;12.612;2023-08-01T07:52:36;0.90;;;0.73;;
60060;SDS011;45933;51.336;12.612;2023-08-01T07:55:01;1.92;;;0.77;;
60060;SDS011;45933;51.336;12.612;2023-08-01T07:57:26;1.33;;;0.70;;
60060;SDS011;45933;51.336;12.612;2023-08-01T07:59:52;1.20;;;0.80;;
60060;SDS011;45933;51.336;12.612;2023-08-01T08:02:17;2.78;;;0.70;;
60060;SDS011;45933;51.336;12.612;2023-08-01T08:04:42;2.45;;;0.85;;
60060;SDS011;45933;51.336;12.612;2023-08-01T08:07:08;1.40;;;0.80;;
60060;SDS011;45933;51.336;12.612;2023-08-01T08:09:33;3.40;;;0.80;;
60060;SDS011;45933;51.336;12.612;2023-08-01T08:11:58;1.60;;;0.90;;
60060;SDS011;45933;51.336;12.612;2023-08-01T08:14:24;2.50;;;0.95;;
60060;SDS011;45933;51.336;12.612;2023-08-01T08:16:49;1.65;;;0.75;;
60060;SDS011;45933;51.336;12.612;2023-08-01T08:19:15;4.03;;;1.30;;
60060;SDS011;45933;51.336;12.612;2023-08-01T08:21:40;1.33;;;0.70;;
60060;SDS011;45933;51.336;12.612;2023-08-01T08:24:06;1.38;;;0.57;;
60060;SDS011;45933;51.336;12.612;2023-08-01T08:26:31;2.42;;;1.30;;
60060;SDS011;45933;51.336;12.612;2023-08-01T08:28:59;1.77;;;1.40;;
60060;SDS011;45933;51.336;12.612;2023-08-01T08:31:24;4.00;;;1.80;;
60060;SDS011;45933;51.336;12.612;2023-08-01T08:33:49;1.58;;;1.10;;
60060;SDS011;45933;51.336;12.612;2023-08-01T08:36:15;2.28;;;0.73;;
60060;SDS011;45933;51.336;12.612;2023-08-01T08:38:40;1.60;;;1.08;;
60060;SDS011;45933;51.336;12.612;2023-08-01T08:41:08;2.30;;;0.70;;
60060;SDS011;45933;51.336;12.612;2023-08-01T08:43:35;0.98;;;0.80;;
60060;SDS011;45933;51.336;12.612;2023-08-01T08:46:01;1.92;;;0.88;;
60060;SDS011;45933;51.336;12.612;2023-08-01T08:48:28;1.55;;;0.85;;
60060;SDS011;45933;51.336;12.612;2023-08-01T08:50:57;2.40;;;1.00;;
60060;SDS011;45933;51.336;12.612;2023-08-01T08:53:23;3.08;;;1.00;;
60060;SDS011;45933;51.336;12.612;2023-08-01T08:55:50;1.25;;;0.90;;
60060;SDS011;45933;51.336;12.612;2023-08-01T08:58:15;1.05;;;0.80;;
60060;SDS011;45933;51.336;12.612;2023-08-01T09:00:41;1.35;;;0.70;;
60060;SDS011;45933;51.336;12.612;2023-08-01T09:03:08;3.00;;;0.60;;
60060;SDS011;45933;51.336;12.612;2023-08-01T09:06:07;1.67;;;1.15;;
60060;SDS011;45933;51.336;12.612;2023-08-01T09:08:29;1.67;;;0.80;;
60060;SDS011;45933;51.336;12.612;2023-08-01T09:10:58;1.00;;;0.80;;
60060;SDS011;45933;51.336;12.612;2023-08-01T09:13:23;0.77;;;0.47;;
60060;SDS011;45933;51.336;12.612;2023-08-01T09:15:48;1.00;;;0.80;;
60060;SDS011;45933;51.336;12.612;2023-08-01T09:18:14;2.90;;;0.73;;
60060;SDS011;45933;51.336;12.612;2023-08-01T09:20:44;1.75;;;0.70;;
60060;SDS011;45933;51.336;12.612;2023-08-01T09:23:11;1.13;;;0.90;;
60060;SDS011;45933;51.336;12.612;2023-08-01T09:25:37;1.38;;;0.80;;
60060;SDS011;45933;51.336;12.612;2023-08-01T09:28:03;1.05;;;0.70;;
60060;SDS011;45933;51.336;12.612;2023-08-01T09:30:45;1.20;;;0.77;;
60060;SDS011;45933;51.336;12.612;2023-08-01T09:33:14;2.15;;;0.80;;
60060;SDS011;45933;51.336;12.612;2023-08-01T09:35:39;1.30;;;0.77;;
60060;SDS011;45933;51.336;12.612;2023-08-01T09:38:05;1.30;;;1.00;;
60060;SDS011;45933;51.336;12.612;2023-08-01T09:40:37;1.20;;;0.90;;
60060;SDS011;45933;51.336;12.612;2023-08-01T09:43:02;2.45;;;1.27;;
60060;SDS011;45933;51.336;12.612;2023-08-01T09:45:28;0.90;;;0.85;;
60060;SDS011;45933;51.336;12.612;2023-08-01T09:47:53;1.48;;;1.00;;
60060;SDS011;45933;51.336;12.612;2023-08-01T09:50:19;3.13;;;1.30;;
60060;SDS011;45933;51.336;12.612;2023-08-01T09:52:46;2.90;;;0.93;;
60060;SDS011;45933;51.336;12.612;2023-08-01T09:57:59;1.10;;;1.00;;
60060;SDS011;45933;51.336;12.612;2023-08-01T10:00:26;1.10;;;1.00;;
60060;SDS011;45933;51.336;12.612;2023-08-01T10:02:52;1.58;;;1.13;;
60060;SDS011;45933;51.336;12.612;2023-08-01T10:05:18;2.08;;;1.10;;
60060;SDS011;45933;51.336;12.612;2023-08-01T10:07:45;3.22;;;1.20;;
60060;SDS011;45933;51.336;12.612;2023-08-01T10:10:11;1.27;;;1.10;;
60060;SDS011;45933;51.336;12.612;2023-08-01T10:12:37;3.15;;;1.50;;
60060;SDS011;45933;51.336;12.612;2023-08-01T10:15:04;7.00;;;1.80;;
60060;SDS011;45933;51.336;12.612;2023-08-01T10:17:30;2.08;;;1.25;;
60060;SDS011;45933;51.336;12.612;2023-08-01T10:19:57;1.98;;;1.40;;
60060;SDS011;45933;51.336;12.612;2023-08-01T10:22:23;1.92;;;1.20;;
60060;SDS011;45933;51.336;12.612;2023-08-01T10:24:49;1.38;;;1.10;;
60060;SDS011;45933;51.336;12.612;2023-08-01T10:27:19;4.47;;;1.60;;
60060;SDS011;45933;51.336;12.612;2023-08-01T10:29:45;3.15;;;1.13;;
60060;SDS011;45933;51.336;12.612;2023-08-01T10:32:27;2.30;;;1.30;;
60060;SDS011;45933;51.336;12.612;2023-08-01T10:34:54;4.07;;;1.23;;
60060;SDS011;45933;51.336;12.612;2023-08-01T10:37:19;4.25;;;1.30;;
60060;SDS011;45933;51.336;12.612;2023-08-01T10:39:45;2.85;;;0.80;;
60060;SDS011;45933;51.336;12.612;2023-08-01T10:42:22;1.10;;;0.80;;
60060;SDS011;45933;51.336;12.612;2023-08-01T10:44:47;2.30;;;0.82;;
60060;SDS011;45933;51.336;12.612;2023-08-01T10:47:12;1.77;;;1.00;;
60060;SDS011;45933;51.336;12.612;2023-08-01T10:49:38;1.27;;;0.70;;
60060;SDS011;45933;51.336;12.612;2023-08-01T10:52:17;2.03;;;0.50;;
60060;SDS011;45933;51.336;12.612;2023-08-01T10:54:44;1.33;;;0.90;;
60060;SDS011;45933;51.336;12.612;2023-08-01T10:57:16;1.17;;;0.70;;
60060;SDS011;45933;51.336;12.612;2023-08-01T10:59:42;1.80;;;0.60;;
60060;SDS011;45933;51.336;12.612;2023-08-01T11:02:09;0.82;;;0.70;;
60060;SDS011;45933;51.336;12.612;2023-08-01T11:04:34;0.75;;;0.60;;
60060;SDS011;45933;51.336;12.612;2023-08-01T11:06:59;0.50;;;0.50;;
60060;SDS011;45933;51.336;12.612;2023-08-01T11:09:25;1.05;;;0.60;;
60060;SDS011;45933;51.336;12.612;2023-08-01T11:11:52;0.95;;;0.60;;
60060;SDS011;45933;51.336;12.612;2023-08-01T11:14:25;1.13;;;0.55;;
60060;SDS011;45933;51.336;12.612;2023-08-01T11:16:53;1.05;;;0.60;;
60060;SDS011;45933;51.336;12.612;2023-08-01T11:19:20;1.40;;;0.47;;
60060;SDS011;45933;51.336;12.612;2023-08-01T11:21:47;0.65;;;0.60;;
60060;SDS011;45933;51.336;12.612;2023-08-01T11:24:13;1.13;;;0.60;;
60060;SDS011;45933;51.336;12.612;2023-08-01T11:26:45;3.40;;;0.75;;
60060;SDS011;45933;51.336;12.612;2023-08-01T11:29:12;1.45;;;0.80;;
60060;SDS011;45933;51.336;12.612;2023-08-01T11:31:38;1.17;;;0.90;;
60060;SDS011;45933;51.336;12.612;2023-08-01T11:34:06;1.10;;;0.82;;
60060;SDS011;45933;51.336;12.612;2023-08-01T11:36:33;2.20;;;1.00;;
60060;SDS011;45933;51.336;12.612;2023-08-01T11:38:59;1.33;;;0.90;;
60060;SDS011;45933;51.336;12.612;2023-08-01T11:41:28;1.20;;;1.10;;
60060;SDS011;45933;51.336;12.612;2023-08-01T11:43:54;2.92;;;1.73;;
60060;SDS011;45933;51.336;12.612;2023-08-01T11:46:20;1.73;;;1.48;;
60060;SDS011;45933;51.336;12.612;2023-08-01T11:48:50;2.08;;;1.88;;
60060;SDS011;45933;51.336;12.612;2023-08-01T11:51:17;2.65;;;1.50;;
60060;SDS011;45933;51.336;12.612;2023-08-01T11:53:43;1.73;;;1.60;;
60060;SDS011;45933;51.336;12.612;2023-08-01T11:56:18;1.95;;;1.75;;
60060;SDS011;45933;51.336;12.612;2023-08-01T11:58:45;2.35;;;1.60;;
60060;SDS011;45933;51.336;12.612;2023-08-01T12:01:11;2.13;;;1.70;;
60060;SDS011;45933;51.336;12.612;2023-08-01T12:03:47;1.88;;;1.35;;
60060;SDS011;45933;51.336;12.612;2023-08-01T12:06:21;1.67;;;1.50;;
60060;SDS011;45933;51.336;12.612;2023-08-01T12:08:48;2.40;;;1.98;;
60060;SDS011;45933;51.336;12.612;2023-08-01T12:11:20;2.00;;;1.60;;
60060;SDS011;45933;51.336;12.612;2023-08-01T12:13:59;2.17;;;1.98;;
60060;SDS011;45933;51.336;12.612;2023-08-01T12:16:45;1.98;;;1.77;;
60060;SDS011;45933;51.336;12.612;2023-08-01T12:19:16;5.85;;;2.60;;
60060;SDS011;45933;51.336;12.612;2023-08-01T12:21:43;3.08;;;2.28;;
60060;SDS011;45933;51.336;12.612;2023-08-01T12:24:09;4.15;;;2.53;;
60060;SDS011;45933;51.336;12.612;2023-08-01T12:26:34;2.65;;;2.10;;
60060;SDS011;45933;51.336;12.612;2023-08-01T12:28:59;5.03;;;2.30;;
60060;SDS011;45933;51.336;12.612;2023-08-01T12:31:25;5.22;;;2.65;;
60060;SDS011;45933;51.336;12.612;2023-08-01T12:33:50;2.58;;;2.38;;
60060;SDS011;45933;51.336;12.612;2023-08-01T12:36:17;4.47;;;2.60;;
60060;SDS011;45933;51.336;12.612;2023-08-01T12:38:42;6.35;;;2.75;;
60060;SDS011;45933;51.336;12.612;2023-08-01T12:41:08;3.60;;;3.00;;
60060;SDS011;45933;51.336;12.612;2023-08-01T12:43:33;4.50;;;2.53;;
60060;SDS011;45933;51.336;12.612;2023-08-01T12:45:59;4.25;;;2.63;;
60060;SDS011;45933;51.336;12.612;2023-08-01T12:48:25;3.83;;;2.60;;
60060;SDS011;45933;51.336;12.612;2023-08-01T12:50:51;3.17;;;2.47;;
60060;SDS011;45933;51.336;12.612;2023-08-01T12:53:16;3.13;;;2.58;;
60060;SDS011;45933;51.336;12.612;2023-08-01T12:55:42;2.90;;;2.60;;
60060;SDS011;45933;51.336;12.612;2023-08-01T12:58:09;4.45;;;2.83;;
60060;SDS011;45933;51.336;12.612;2023-08-01T13:00:34;5.65;;;3.17;;
60060;SDS011;45933;51.336;12.612;2023-08-01T13:03:00;5.15;;;2.95;;
60060;SDS011;45933;51.336;12.612;2023-08-01T13:05:25;2.97;;;2.40;;
60060;SDS011;45933;51.336;12.612;2023-08-01T13:07:50;3.25;;;2.67;;
60060;SDS011;45933;51.336;12.612;2023-08-01T13:10:15;3.67;;;2.90;;
60060;SDS011;45933;51.336;12.612;2023-08-01T13:12:41;2.80;;;2.47;;
60060;SDS011;45933;51.336;12.612;2023-08-01T13:15:07;3.53;;;2.65;;
60060;SDS011;45933;51.336;12.612;2023-08-01T13:17:33;4.70;;;2.70;;
60060;SDS011;45933;51.336;12.612;2023-08-01T13:19:59;3.65;;;2.88;;
60060;SDS011;45933;51.336;12.612;2023-08-01T13:22:24;4.43;;;3.08;;
60060;SDS011;45933;51.336;12.612;2023-08-01T13:24:49;3.72;;;3.10;;
60060;SDS011;45933;51.336;12.612;2023-08-01T13:27:14;2.85;;;2.63;;
60060;SDS011;45933;51.336;12.612;2023-08-01T13:29:40;4.25;;;2.83;;
60060;SDS011;45933;51.336;12.612;2023-08-01T13:32:05;5.85;;;2.70;;
60060;SDS011;45933;51.336;12.612;2023-08-01T13:34:31;5.82;;;3.00;;
60060;SDS011;45933;51.336;12.612;2023-08-01T13:36:56;3.78;;;2.90;;
60060;SDS011;45933;51.336;12.612;2023-08-01T13:39:22;4.32;;;3.00;;
60060;SDS011;45933;51.336;12.612;2023-08-01T13:41:47;5.10;;;3.20;;
60060;SDS011;45933;51.336;12.612;2023-08-01T13:44:12;3.92;;;2.90;;
60060;SDS011;45933;51.336;12.612;2023-08-01T13:46:38;4.00;;;2.85;;
60060;SDS011;45933;51.336;12.612;2023-08-01T13:49:03;4.25;;;3.10;;
60060;SDS011;45933;51.336;12.612;2023-08-01T13:51:31;5.53;;;3.05;;
60060;SDS011;45933;51.336;12.612;2023-08-01T13:53:59;5.80;;;3.35;;
60060;SDS011;45933;51.336;12.612;2023-08-01T13:56:25;3.30;;;3.05;;
60060;SDS011;45933;51.336;12.612;2023-08-01T13:58:51;4.90;;;3.63;;
60060;SDS011;45933;51.336;12.612;2023-08-01T14:01:17;4.63;;;3.50;;
60060;SDS011;45933;51.336;12.612;2023-08-01T14:03:45;4.75;;;3.58;;
60060;SDS011;45933;51.336;12.612;2023-08-01T14:06:12;5.75;;;4.03;;
60060;SDS011;45933;51.336;12.612;2023-08-01T14:08:39;4.63;;;3.90;;
60060;SDS011;45933;51.336;12.612;2023-08-01T14:11:06;5.28;;;4.13;;
60060;SDS011;45933;51.336;12.612;2023-08-01T14:13:34;6.43;;;4.10;;
60060;SDS011;45933;51.336;12.612;2023-08-01T14:16:00;5.32;;;4.05;;
60060;SDS011;45933;51.336;12.612;2023-08-01T14:18:26;4.70;;;4.20;;
60060;SDS011;45933;51.336;12.612;2023-08-01T14:20:52;4.63;;;4.13;;
60060;SDS011;45933;51.336;12.612;2023-08-01T14:23:18;4.55;;;4.03;;
60060;SDS011;45933;51.336;12.612;2023-08-01T14:25:43;6.93;;;3.75;;
60060;SDS011;45933;51.336;12.612;2023-08-01T14:28:09;10.50;;;4.30;;
60060;SDS011;45933;51.336;12.612;2023-08-01T14:30:34;7.93;;;5.03;;